Time;durP1;ratioP1;P1;durP2;ratioP2;P2;SDS_P1;SDS_P2;PMS_P1;PMS_P2;Temp;Humidity;BMP_temperature;BMP_pressure;BME280_temperature;BME280_humidity;BME280_pressure;Samples;Min_cycle;Max_cycle;Signal;HPM_P1;HPM_P2
2022/06/04 00:01:54;;;;;;;9.10;5.57;;;;;;;19.02;100.00;99124.78;5025761;28;20191;-80
2022/06/04 00:04:22;;;;;;;6.50;5.87;;;;;;;19.12;100.00;99131.78;5029079;28;20206;-79
2022/06/04 00:06:52;;;;;;;6.53;5.93;;;;;;;19.22;100.00;99133.53;5029171;28;20204;-79
2022/06/04 00:09:21;;;;;;;6.40;5.80;;;;;;;19.20;100.00;99132.81;5029933;28;20194;-79
2022/06/04 00:17:21;;;;;;;6.25;5.65;;;;;;;19.30;100.00;99118.34;5030313;28;20273;-79
2022/06/04 00:19:50;;;;;;;6.00;5.50;;;;;;;19.27;100.00;99115.94;5036247;27;20209;-80
2022/06/04 00:22:20;;;;;;;6.57;5.97;;;;;;;19.26;100.00;99118.81;5027363;28;20273;-79
2022/06/04 00:24:48;;;;;;;7.20;6.50;;;;;;;19.23;100.00;99117.28;5030097;28;20194;-78
2022/06/04 00:27:19;;;;;;;6.20;5.60;;;;;;;19.29;100.00;99108.56;5025275;28;20201;-80
2022/06/04 00:29:48;;;;;;;6.37;5.87;;;;;;;19.20;100.00;99109.50;5034942;28;20202;-79
2022/06/04 00:32:18;;;;;;;6.50;5.90;;;;;;;19.11;100.00;99113.16;5029476;28;20201;-79
2022/06/04 00:34:47;;;;;;;6.63;5.73;;;;;;;18.89;100.00;99122.47;5025231;28;20209;-79
2022/06/04 00:37:15;;;;;;;8.00;7.30;;;;;;;18.76;100.00;99113.94;5026126;28;20202;-78
2022/06/04 00:39:46;;;;;;;7.03;6.40;;;;;;;18.66;100.00;99126.59;5029837;28;20287;-78
2022/06/04 00:42:19;;;;;;;7.30;6.60;;;;;;;18.74;100.00;99137.41;5029969;28;20284;-78
2022/06/04 00:45:26;;;;;;;6.67;6.07;;;;;;;18.67;100.00;99129.13;5022604;28;20205;-79
2022/06/04 00:47:55;;;;;;;8.07;6.50;;;;;;;18.64;100.00;99134.75;5029714;28;20251;-78
2022/06/04 00:50:23;;;;;;;7.00;6.37;;;;;;;18.62;100.00;99133.19;5027135;28;20281;-79
2022/06/04 00:52:55;;;;;;;6.60;6.07;;;;;;;18.56;100.00;99123.91;5028661;28;20690;-79
2022/06/04 00:55:25;;;;;;;7.07;6.33;;;;;;;18.56;100.00;99123.91;5028127;28;20214;-79
2022/06/04 00:58:12;;;;;;;8.17;6.63;;;;;;;18.66;100.00;99130.09;5031529;28;20198;-79
2022/06/04 01:00:47;;;;;;;7.00;6.40;;;;;;;18.59;100.00;99132.50;5032981;28;20208;-79
2022/06/04 01:03:29;;;;;;;7.70;6.90;;;;;;;18.30;100.00;99142.53;5032170;28;20202;-79
2022/06/04 01:06:09;;;;;;;8.17;6.93;;;;;;;17.95;100.00;99141.41;5030425;28;20644;-79
2022/06/04 01:09:03;;;;;;;7.43;6.93;;;;;;;18.13;100.00;99135.25;5032635;28;20209;-79
2022/06/04 01:14:39;;;;;;;6.90;6.30;;;;;;;18.43;100.00;99139.50;5031258;28;20236;-79
2022/06/04 01:17:17;;;;;;;8.10;7.40;;;;;;;18.59;100.00;99140.56;5028402;28;20197;-79
2022/06/04 01:19:57;;;;;;;8.27;7.27;;;;;;;18.50;100.00;99138.75;5031675;28;20201;-79
2022/06/04 01:22:45;;;;;;;7.97;6.60;;;;;;;18.62;100.00;99142.09;5030305;28;20198;-79
2022/06/04 01:25:33;;;;;;;8.37;7.40;;;;;;;18.66;100.00;99143.53;5036659;28;20198;-78
2022/06/04 01:28:06;;;;;;;7.60;6.90;;;;;;;18.39;100.00;99144.34;5035050;28;20285;-79
2022/06/04 01:30:39;;;;;;;7.60;7.00;;;;;;;18.38;100.00;99141.81;5032559;28;20281;-79
2022/06/04 01:33:12;;;;;;;8.13;7.33;;;;;;;18.42;100.00;99145.88;5032718;28;20636;-79
2022/06/04 01:35:45;;;;;;;8.40;6.30;;;;;;;18.53;100.00;99143.00;5029667;28;20221;-79
2022/06/04 01:38:18;;;;;;;8.30;7.50;;;;;;;18.37;100.00;99145.47;5028362;28;20213;-78
2022/06/04 01:41:03;;;;;;;7.93;7.23;;;;;;;18.45;100.00;99151.78;5030069;28;20206;-79
2022/06/04 01:43:37;;;;;;;7.77;7.03;;;;;;;18.36;100.00;99144.63;5031060;28;20197;-78
2022/06/04 01:46:13;;;;;;;7.83;7.13;;;;;;;18.36;100.00;99144.63;5032619;28;20198;-78
2022/06/04 01:48:45;;;;;;;7.33;6.83;;;;;;;18.21;100.00;99140.72;5032306;28;20200;-79
2022/06/04 01:51:19;;;;;;;7.93;6.90;;;;;;;18.12;100.00;99145.13;5032466;28;20202;-79
2022/06/04 01:53:51;;;;;;;7.63;6.40;;;;;;;17.95;100.00;99130.69;5037067;28;20201;-78
2022/06/04 01:56:24;;;;;;;7.77;7.07;;;;;;;18.09;100.00;99136.56;5032152;28;20213;-79
2022/06/04 01:58:58;;;;;;;8.20;7.07;;;;;;;17.99;100.00;99137.44;5034623;28;20284;-78
2022/06/04 02:01:32;;;;;;;7.80;7.00;;;;;;;18.09;100.00;99139.22;5032089;28;20189;-79
2022/06/04 02:04:05;;;;;;;8.40;7.53;;;;;;;18.11;100.00;99146.13;5026201;28;20652;-79
2022/06/04 02:06:40;;;;;;;7.87;7.23;;;;;;;18.07;100.00;99143.91;5029387;28;20198;-78
2022/06/04 02:09:13;;;;;;;7.07;6.37;;;;;;;18.00;100.00;99131.06;5032074;28;20212;-79
2022/06/04 02:11:49;;;;;;;8.27;7.40;;;;;;;18.04;100.00;99134.28;5031950;28;20609;-79
2022/06/04 02:14:20;;;;;;;7.83;7.17;;;;;;;18.00;100.00;99125.72;5030791;28;20205;-79
2022/06/04 02:16:53;;;;;;;8.07;7.17;;;;;;;18.13;100.00;99128.06;5030957;28;20222;-78
2022/06/04 02:19:21;;;;;;;7.10;6.50;;;;;;;17.96;100.00;99127.00;5029226;28;20197;-79
2022/06/04 02:21:50;;;;;;;6.93;6.30;;;;;;;17.96;100.00;99124.34;5026479;28;20202;-78
2022/06/04 02:24:18;;;;;;;7.17;6.47;;;;;;;17.97;100.00;99119.81;5031757;28;20209;-79
2022/06/04 02:26:46;;;;;;;7.80;7.03;;;;;;;17.98;100.00;99118.81;5031895;28;20194;-79
2022/06/04 02:29:16;;;;;;;10.33;7.00;;;;;;;17.93;100.00;99116.56;5028633;28;20253;-79
2022/06/04 02:31:50;;;;;;;7.80;7.20;;;;;;;17.91;100.00;99115.03;5031323;28;20232;-79
2022/06/04 02:34:26;;;;;;;8.97;8.17;;;;;;;17.82;100.00;99124.78;5033800;28;20200;-79
2022/06/04 02:37:02;;;;;;;8.37;7.67;;;;;;;17.69;100.00;99126.91;5030239;28;20236;-79
2022/06/04 02:39:36;;;;;;;8.13;7.43;;;;;;;17.68;100.00;99126.06;5031577;28;20192;-79
2022/06/04 02:42:15;;;;;;;8.27;7.57;;;;;;;17.59;100.00;99129.59;5037680;27;20201;-79
2022/06/04 02:44:48;;;;;;;8.30;7.57;;;;;;;17.55;100.00;99136.22;5030117;28;20281;-79
2022/06/04 02:47:23;;;;;;;8.10;7.50;;;;;;;17.49;100.00;99144.84;5031388;28;20197;-78
2022/06/04 02:49:56;;;;;;;7.87;7.27;;;;;;;17.40;100.00;99132.28;5031597;28;20194;-79
2022/06/04 02:52:26;;;;;;;8.63;7.43;;;;;;;17.38;100.00;99131.59;5031017;28;20209;-79
2022/06/04 02:54:57;;;;;;;7.77;6.90;;;;;;;17.36;100.00;99122.84;5029287;28;20272;-79
2022/06/04 02:57:28;;;;;;;7.97;7.27;;;;;;;17.18;100.00;99114.69;5029211;28;20304;-79
2022/06/04 02:59:57;;;;;;;8.33;7.40;;;;;;;17.10;100.00;99112.72;5031116;28;20348;-79
2022/06/04 03:02:30;;;;;;;9.63;7.50;;;;;;;17.06;100.00;99113.13;5029065;28;20692;-78
2022/06/04 03:05:08;;;;;;;8.53;7.47;;;;;;;16.93;100.00;99112.56;5072006;28;20192;-79
2022/06/04 03:07:41;;;;;;;9.83;8.50;;;;;;;16.79;100.00;99117.34;5068505;28;20207;-78
2022/06/04 03:10:12;;;;;;;11.37;8.47;;;;;;;16.90;100.00;99120.88;5067777;28;20691;-79
2022/06/04 03:12:41;;;;;;;8.40;7.70;;;;;;;17.01;100.00;99124.25;5064867;28;20200;-79
2022/06/04 03:15:11;;;;;;;9.37;8.50;;;;;;;17.09;100.00;99124.41;5064417;28;20204;-79
2022/06/04 03:17:41;;;;;;;9.37;8.30;;;;;;;17.12;100.00;99118.78;5067990;28;20199;-79
2022/06/04 03:20:11;;;;;;;9.07;8.23;;;;;;;17.23;100.00;99111.59;5071788;28;20279;-79
2022/06/04 03:22:39;;;;;;;8.40;7.70;;;;;;;17.20;100.00;99114.56;5060243;28;20221;-79
2022/06/04 03:25:08;;;;;;;9.53;8.30;;;;;;;17.24;100.00;99115.94;5031013;28;20202;-79
2022/06/04 03:27:36;;;;;;;8.10;7.40;;;;;;;17.34;100.00;99116.78;5031373;28;20216;-79
2022/06/04 03:30:07;;;;;;;8.73;7.87;;;;;;;17.31;100.00;99112.56;5023092;28;20236;-79
2022/06/04 03:32:36;;;;;;;9.50;8.60;;;;;;;17.36;100.00;99110.28;5027205;28;20197;-79
2022/06/04 03:35:07;;;;;;;9.30;8.40;;;;;;;17.49;100.00;99111.84;5030606;28;20209;-79
2022/06/04 03:37:36;;;;;;;9.33;8.43;;;;;;;17.43;100.00;99111.41;4996553;28;20223;-79
2022/06/04 03:40:06;;;;;;;9.53;8.40;;;;;;;17.27;100.00;99112.97;5030701;28;20205;-79
2022/06/04 03:42:35;;;;;;;8.77;8.00;;;;;;;17.24;100.00;99119.47;5029492;28;20225;-79
2022/06/04 03:45:04;;;;;;;7.87;7.23;;;;;;;17.27;100.00;99118.34;5028237;28;20217;-79
2022/06/04 03:47:36;;;;;;;8.83;8.03;;;;;;;17.10;100.00;99114.56;5036682;28;20201;-78
2022/06/04 03:50:07;;;;;;;8.83;8.03;;;;;;;17.24;100.00;99114.13;5029909;28;20197;-79
2022/06/04 03:52:36;;;;;;;9.43;8.50;;;;;;;17.25;100.00;99114.97;5028313;28;20208;-79
2022/06/04 03:55:05;;;;;;;9.17;8.27;;;;;;;17.33;100.00;99120.47;5030335;28;20201;-79
2022/06/04 03:57:41;;;;;;;10.27;9.33;;;;;;;17.40;100.00;99117.06;5028940;28;20225;-79
2022/06/04 04:00:14;;;;;;;10.10;9.23;;;;;;;17.33;100.00;99115.94;5029887;28;20205;-79
2022/06/04 04:02:44;;;;;;;9.70;8.70;;;;;;;17.19;100.00;99123.56;5030173;28;20365;-78
2022/06/04 04:05:16;;;;;;;9.73;8.70;;;;;;;17.17;100.00;99124.53;5030195;28;20227;-79
2022/06/04 04:07:44;;;;;;;9.13;8.23;;;;;;;17.21;100.00;99126.94;5028811;28;20218;-79
2022/06/04 04:10:13;;;;;;;9.60;8.70;;;;;;;17.31;100.00;99127.78;5030345;28;20202;-78
2022/06/04 04:12:41;;;;;;;9.30;8.60;;;;;;;17.35;100.00;99124.66;5026168;28;20201;-78
2022/06/04 04:15:11;;;;;;;9.93;9.03;;;;;;;17.42;100.00;99119.59;5030157;28;20294;-78
2022/06/04 04:17:40;;;;;;;9.33;8.43;;;;;;;17.44;100.00;99131.84;5030205;28;20217;-78
2022/06/04 04:20:11;;;;;;;8.70;8.00;;;;;;;17.48;100.00;99123.56;5029839;28;20292;-78
2022/06/04 04:22:41;;;;;;;8.83;7.93;;;;;;;17.44;100.00;99133.69;5029732;28;20204;-79
2022/06/04 04:25:11;;;;;;;9.43;7.83;;;;;;;17.49;100.00;99135.97;5029871;28;20193;-78
2022/06/04 04:27:39;;;;;;;9.67;8.73;;;;;;;17.48;100.00;99134.28;5028319;28;20194;-79
2022/06/04 04:30:10;;;;;;;9.10;8.20;;;;;;;17.48;100.00;99126.25;5029877;28;20292;-78
2022/06/04 04:32:38;;;;;;;9.63;8.63;;;;;;;17.51;100.00;99132.13;5029596;28;20189;-78
2022/06/04 04:35:09;;;;;;;10.20;8.47;;;;;;;17.63;100.00;99140.84;5035864;28;20202;-79
2022/06/04 04:37:37;;;;;;;9.40;8.57;;;;;;;17.58;100.00;99140.47;5029549;28;20214;-78
2022/06/04 04:40:08;;;;;;;9.13;8.33;;;;;;;17.70;100.00;99147.38;5027819;28;20221;-79
2022/06/04 04:42:36;;;;;;;10.83;7.57;;;;;;;17.72;100.00;99143.56;5026475;28;20272;-79
2022/06/04 04:45:07;;;;;;;9.30;8.50;;;;;;;17.65;100.00;99141.56;5029519;28;20201;-78
2022/06/04 04:47:35;;;;;;;9.23;8.30;;;;;;;17.84;100.00;99138.03;5026698;28;20205;-78
2022/06/04 04:50:05;;;;;;;8.63;7.93;;;;;;;17.91;100.00;99153.38;5029559;28;20202;-78
2022/06/04 04:52:33;;;;;;;9.73;8.43;;;;;;;17.89;100.00;99154.53;5030047;28;20647;-78
2022/06/04 04:55:01;;;;;;;9.73;8.60;;;;;;;17.82;100.00;99170.31;5036107;28;20205;-79
2022/06/04 04:57:31;;;;;;;9.20;8.40;;;;;;;17.96;100.00;99166.38;5025421;28;20221;-79
2022/06/04 05:00:00;;;;;;;9.33;8.33;;;;;;;17.97;100.00;99170.75;5029864;28;20194;-79
2022/06/04 05:02:28;;;;;;;9.10;8.20;;;;;;;17.94;100.00;99166.50;5029755;28;20190;-79
2022/06/04 05:04:56;;;;;;;10.63;9.27;;;;;;;17.97;100.00;99171.56;5029459;28;20311;-79
2022/06/04 05:07:24;;;;;;;9.87;8.83;;;;;;;18.13;100.00;99173.63;5029552;28;20190;-79
2022/06/04 05:09:52;;;;;;;10.10;8.93;;;;;;;18.25;100.00;99175.16;5035643;28;20201;-79
2022/06/04 05:12:21;;;;;;;9.63;8.70;;;;;;;18.31;100.00;99173.72;5027366;28;20202;-78
2022/06/04 05:14:51;;;;;;;9.07;8.27;;;;;;;18.26;100.00;99182.22;5026115;28;20209;-79
2022/06/04 05:17:19;;;;;;;9.70;8.87;;;;;;;18.31;100.00;99179.09;5028975;28;20228;-78
2022/06/04 05:19:52;;;;;;;10.63;8.53;;;;;;;18.25;100.00;99193.09;5027255;28;20194;-78
2022/06/04 05:22:20;;;;;;;9.57;8.57;;;;;;;18.30;100.00;99188.97;5033684;28;20206;-79
2022/06/04 05:24:49;;;;;;;9.30;8.40;;;;;;;18.38;100.00;99182.88;5027985;28;20216;-78
2022/06/04 05:27:18;;;;;;;9.20;8.30;;;;;;;18.29;100.00;99189.97;5031970;28;20201;-79
2022/06/04 05:29:46;;;;;;;8.77;7.87;;;;;;;18.39;100.00;99189.91;5026436;28;20194;-79
2022/06/04 05:32:15;;;;;;;9.00;8.20;;;;;;;18.47;100.00;99195.41;5029498;28;20213;-79
2022/06/04 05:34:44;;;;;;;9.17;7.80;;;;;;;18.42;100.00;99194.13;5032967;28;20202;-78
2022/06/04 05:37:12;;;;;;;9.00;8.10;;;;;;;18.49;100.00;99200.63;5028944;28;20222;-79
2022/06/04 05:39:40;;;;;;;8.50;7.60;;;;;;;18.36;100.00;99197.44;5034061;28;20206;-78
2022/06/04 05:42:09;;;;;;;7.90;7.10;;;;;;;18.20;100.00;99187.31;5032485;28;20198;-79
2022/06/04 05:44:38;;;;;;;8.37;6.57;;;;;;;18.29;100.00;99192.63;5037073;27;20307;-79
2022/06/04 05:47:06;;;;;;;7.90;7.07;;;;;;;18.63;100.00;99199.31;5031098;28;20197;-79
2022/06/04 05:49:36;;;;;;;7.67;6.90;;;;;;;18.73;100.00;99194.75;5030266;28;20293;-79
2022/06/04 05:52:05;;;;;;;8.00;6.93;;;;;;;18.87;100.00;99197.78;5030105;28;20186;-79
2022/06/04 05:54:33;;;;;;;7.23;6.53;;;;;;;18.96;100.00;99196.03;5028884;28;20206;-79
2022/06/04 05:57:01;;;;;;;7.20;6.60;;;;;;;19.03;100.00;99204.34;5032126;28;20220;-79
2022/06/04 05:59:29;;;;;;;6.80;6.10;;;;;;;19.22;100.00;99212.28;5028989;28;20186;-78
2022/06/04 06:01:58;;;;;;;6.53;5.93;;;;;;;19.34;100.00;99211.03;5034845;28;20208;-79
2022/06/04 06:04:27;;;;;;;6.45;5.82;;;;;;;19.37;100.00;99201.81;5028500;28;20213;-79
2022/06/04 06:06:58;;;;;;;6.00;5.40;;;;;;;19.52;100.00;99215.59;5023106;28;20214;-79
2022/06/04 06:09:27;;;;;;;6.23;5.63;;;;;;;19.62;100.00;99211.00;5030959;28;20262;-78
2022/06/04 06:11:56;;;;;;;6.00;5.50;;;;;;;19.55;100.00;99207.22;5032069;28;20206;-78
2022/06/04 06:14:26;;;;;;;7.70;5.40;;;;;;;19.72;100.00;99201.00;5030675;28;20198;-79
2022/06/04 06:16:54;;;;;;;5.57;5.07;;;;;;;19.48;100.00;99203.44;5031611;28;20201;-78
2022/06/04 06:19:24;;;;;;;5.97;5.43;;;;;;;19.67;100.00;99217.59;5028895;28;20679;-78
2022/06/04 06:21:52;;;;;;;5.43;4.90;;;;;;;19.84;100.00;99215.88;5031495;28;20285;-78
2022/06/04 06:24:23;;;;;;;6.27;4.80;;;;;;;19.85;100.00;99208.66;5023942;28;20213;-79
2022/06/04 06:26:54;;;;;;;5.60;5.20;;;;;;;19.97;100.00;99210.94;5029497;28;20198;-78
2022/06/04 06:29:25;;;;;;;6.00;5.50;;;;;;;19.73;100.00;99208.06;5030608;28;20232;-79
2022/06/04 06:31:54;;;;;;;5.70;5.22;;;;;;;19.60;100.00;99205.78;5031761;28;20751;-78
2022/06/04 06:34:24;;;;;;;6.93;5.70;;;;;;;19.87;100.00;99210.19;5032968;28;20284;-79
2022/06/04 06:36:52;;;;;;;5.90;5.10;;;;;;;19.91;100.00;99202.69;5031438;28;20209;-78
2022/06/04 06:39:22;;;;;;;6.18;5.57;;;;;;;19.85;100.00;99205.97;5030159;28;20217;-78
2022/06/04 06:41:51;;;;;;;6.53;5.93;;;;;;;19.87;100.00;99206.66;5031471;28;20200;-78
2022/06/04 06:44:19;;;;;;;5.50;5.00;;;;;;;20.01;100.00;99204.25;5027824;28;20210;-78
2022/06/04 06:46:54;;;;;;;7.83;5.23;;;;;;;20.01;100.00;99204.25;5030610;28;20221;-78
2022/06/04 06:49:24;;;;;;;6.00;5.20;;;;;;;20.13;100.00;99204.00;5028054;28;20202;-79
2022/06/04 06:51:56;;;;;;;5.70;5.20;;;;;;;20.26;100.00;99204.41;5029001;28;20255;-78
2022/06/04 06:54:27;;;;;;;8.57;5.33;;;;;;;20.24;100.00;99204.56;5031349;28;20243;-78
2022/06/04 06:56:56;;;;;;;7.23;5.07;;;;;;;20.22;100.00;99208.44;5031065;28;20201;-78
2022/06/04 06:59:26;;;;;;;7.20;5.50;;;;;;;20.27;100.00;99193.53;5027943;28;20221;-78
2022/06/04 07:01:55;;;;;;;5.80;5.30;;;;;;;20.32;100.00;99202.94;5031347;28;20200;-78
2022/06/04 07:04:23;;;;;;;5.50;5.00;;;;;;;20.52;100.00;99197.19;5028611;28;20197;-78
2022/06/04 07:06:54;;;;;;;14.57;5.57;;;;;;;20.54;100.00;99192.50;5034748;28;20197;-78
2022/06/04 07:09:26;;;;;;;7.32;5.28;;;;;;;20.56;100.00;99192.34;5031397;28;20285;-79
2022/06/04 07:11:55;;;;;;;13.55;6.28;;;;;;;20.72;100.00;99189.72;5031022;28;20190;-78
2022/06/04 07:14:24;;;;;;;6.68;5.57;;;;;;;20.86;100.00;99186.41;5028535;28;20202;-78
2022/06/04 07:16:53;;;;;;;6.93;5.67;;;;;;;20.74;100.00;99185.00;5034778;28;20236;-78
2022/06/04 07:19:24;;;;;;;6.97;5.27;;;;;;;20.78;100.00;99181.00;5031146;28;20214;-79
2022/06/04 07:21:54;;;;;;;4.95;4.55;;;;;;;20.85;100.00;99182.03;5030745;28;20214;-78
2022/06/04 07:24:23;;;;;;;6.20;5.03;;;;;;;20.83;100.00;99181.34;5031009;28;20212;-79
2022/06/04 07:26:53;;;;;;;6.30;5.70;;;;;;;20.95;100.00;99178.38;5029079;28;20201;-79
2022/06/04 07:29:22;;;;;;;5.30;4.75;;;;;;;21.08;100.00;99170.66;5029603;28;20223;-79
2022/06/04 07:31:50;;;;;;;7.13;5.47;;;;;;;21.13;100.00;99176.38;5028874;28;20221;-79
2022/06/04 07:34:19;;;;;;;7.57;4.47;;;;;;;21.27;100.00;99172.25;5030537;28;20205;-79
2022/06/04 07:36:52;;;;;;;5.18;4.70;;;;;;;21.13;100.00;99182.63;5030520;28;20459;-78
2022/06/04 07:39:21;;;;;;;5.20;4.70;;;;;;;21.20;100.00;99187.34;5028299;28;20225;-81
2022/06/04 07:41:52;;;;;;;5.25;4.47;;;;;;;21.40;100.00;99184.19;5026858;28;20200;-81
2022/06/04 07:44:24;;;;;;;4.55;4.15;;;;;;;21.40;100.00;99176.13;5030703;28;20282;-80
2022/06/04 07:46:53;;;;;;;4.55;4.10;;;;;;;21.80;100.00;99176.28;5029178;28;20221;-78
2022/06/04 07:49:22;;;;;;;4.60;4.22;;;;;;;21.89;100.00;99173.41;5025121;28;20205;-80
2022/06/04 07:51:52;;;;;;;4.72;4.13;;;;;;;21.89;100.00;99186.91;5030516;28;20194;-80
2022/06/04 07:54:21;;;;;;;5.18;4.38;;;;;;;21.62;100.00;99190.81;5030569;28;20276;-79
2022/06/04 07:56:50;;;;;;;6.13;3.75;;;;;;;21.88;100.00;99187.09;5027724;28;20227;-80
2022/06/04 07:59:20;;;;;;;4.65;4.07;;;;;;;22.02;100.00;99193.66;5024755;28;20222;-80
2022/06/04 08:01:48;;;;;;;4.07;3.67;;;;;;;22.21;100.00;99196.88;5029886;28;20205;-80
2022/06/04 08:04:17;;;;;;;4.95;3.95;;;;;;;22.37;100.00;99193.28;5028068;28;20209;-80
2022/06/04 08:06:45;;;;;;;4.10;3.80;;;;;;;22.21;100.00;99201.44;5026565;28;20287;-80
2022/06/04 08:09:13;;;;;;;4.60;3.70;;;;;;;21.89;100.00;99195.00;5033799;28;20201;-80
2022/06/04 08:11:43;;;;;;;6.20;4.03;;;;;;;21.85;100.00;99193.66;5030246;28;20198;-80
2022/06/04 08:14:16;;;;;;;5.55;3.90;;;;;;;22.10;100.00;99193.66;5028763;28;20204;-80
2022/06/04 08:16:48;;;;;;;4.20;3.65;;;;;;;22.33;100.00;99194.66;5028344;28;20193;-80
2022/06/04 08:19:16;;;;;;;4.10;3.80;;;;;;;22.58;100.00;99200.78;5027615;28;20255;-80
2022/06/04 08:21:46;;;;;;;4.70;3.90;;;;;;;22.78;100.00;99202.09;5025371;28;20383;-80
2022/06/04 08:24:15;;;;;;;4.70;3.55;;;;;;;22.83;100.00;99201.56;5030313;28;20201;-80
2022/06/04 08:26:47;;;;;;;3.78;3.47;;;;;;;23.01;100.00;99204.03;5031478;28;20284;-79
2022/06/04 08:29:18;;;;;;;4.05;3.40;;;;;;;23.08;100.00;99203.16;5037450;28;20329;-80
2022/06/04 08:31:47;;;;;;;3.90;3.60;;;;;;;23.09;100.00;99209.41;5028528;28;20700;-80
2022/06/04 08:34:16;;;;;;;4.05;3.70;;;;;;;22.86;100.00;99214.72;5027210;28;20202;-79
2022/06/04 08:36:44;;;;;;;3.58;3.22;;;;;;;23.18;100.00;99213.75;5029780;28;20208;-80
2022/06/04 08:39:13;;;;;;;3.95;3.50;;;;;;;23.04;100.00;99209.09;5028515;28;20224;-80
2022/06/04 08:41:57;;;;;;;3.90;3.60;;;;;;;23.02;100.00;99219.22;5029821;28;20197;-79
2022/06/04 08:44:30;;;;;;;4.18;3.80;;;;;;;23.25;100.00;99208.47;5026089;28;20228;-79
2022/06/04 08:47:07;;;;;;;6.55;3.85;;;;;;;23.42;100.00;99215.44;5030565;28;20202;-79
2022/06/04 08:49:39;;;;;;;4.32;3.90;;;;;;;23.75;100.00;99228.78;5029500;28;20204;-79
2022/06/04 08:52:13;;;;;;;4.25;3.50;;;;;;;24.06;100.00;99224.13;5027275;28;20259;-80
2022/06/04 08:57:40;;;;;;;5.40;4.18;;;;;;;24.50;100.00;99221.50;5028437;28;20197;-79
2022/06/04 09:00:14;;;;;;;5.15;3.83;;;;;;;24.53;100.00;99228.44;5029603;28;20213;-80
2022/06/04 09:03:02;;;;;;;3.65;3.35;;;;;;;24.22;100.00;99231.22;5087917;28;20205;-80
2022/06/04 09:05:51;;;;;;;4.00;3.70;;;;;;;24.36;100.00;99232.31;5090059;28;20191;-79
2022/06/04 09:08:36;;;;;;;4.28;3.88;;;;;;;23.99;100.00;99236.69;5087778;28;20200;-80
2022/06/04 09:11:11;;;;;;;4.32;4.03;;;;;;;23.89;100.00;99239.66;5082335;28;20208;-80
2022/06/04 09:13:45;;;;;;;4.28;3.85;;;;;;;24.10;100.00;99238.13;5090830;28;20294;-80
2022/06/04 09:16:23;;;;;;;7.88;4.72;;;;;;;23.74;100.00;99241.47;5089644;28;20206;-79
2022/06/04 09:18:59;;;;;;;4.25;3.85;;;;;;;23.89;100.00;99239.66;5094332;28;20715;-80
2022/06/04 09:21:35;;;;;;;3.72;3.42;;;;;;;23.98;100.00;99245.84;5093993;28;20218;-79
2022/06/04 09:24:04;;;;;;;4.80;3.30;;;;;;;23.87;100.00;99246.28;5091434;28;20199;-79
2022/06/04 09:26:36;;;;;;;4.80;4.22;;;;;;;23.96;100.00;99253.31;5084941;28;20234;-80
2022/06/04 09:29:25;;;;;;;4.55;4.13;;;;;;;24.09;100.00;99256.22;5072620;28;20208;-80
2022/06/04 09:32:04;;;;;;;3.80;3.50;;;;;;;24.19;100.00;99258.69;5069763;28;20216;-81
2022/06/04 09:34:38;;;;;;;5.00;4.00;;;;;;;24.12;100.00;99257.72;5074017;28;20188;-79
2022/06/04 09:37:08;;;;;;;5.82;3.30;;;;;;;24.05;100.00;99256.78;5065942;28;20670;-79
2022/06/04 09:39:39;;;;;;;3.85;3.55;;;;;;;23.76;100.00;99261.06;5073388;28;20228;-79
2022/06/04 09:42:21;;;;;;;5.03;4.53;;;;;;;23.92;100.00;99250.09;5073479;28;20207;-79
2022/06/04 09:44:51;;;;;;;4.85;4.32;;;;;;;23.91;100.00;99248.41;5073514;28;20194;-79
2022/06/04 09:47:22;;;;;;;4.03;3.72;;;;;;;24.09;100.00;99252.69;5068229;28;20197;-79
2022/06/04 09:49:58;;;;;;;3.90;3.45;;;;;;;23.90;100.00;99256.72;5073565;28;20192;-80
2022/06/04 09:52:34;;;;;;;4.55;3.65;;;;;;;24.19;100.00;99261.38;5073538;28;20204;-79
2022/06/04 09:55:15;;;;;;;4.68;3.58;;;;;;;24.20;100.00;99260.34;5032142;28;20201;-80
2022/06/04 09:57:44;;;;;;;4.25;3.63;;;;;;;24.25;100.00;99260.66;5029495;28;20276;-80
2022/06/04 10:00:21;;;;;;;4.68;4.10;;;;;;;24.27;100.00;99267.56;5032064;28;20244;-80
2022/06/04 10:02:56;;;;;;;3.97;3.30;;;;;;;24.52;100.00;99264.66;5029200;28;20280;-79
2022/06/04 10:05:30;;;;;;;3.85;3.55;;;;;;;23.94;100.00;99261.59;5032687;28;20223;-79
2022/06/04 10:07:59;;;;;;;4.07;3.67;;;;;;;24.22;100.00;99258.31;5032153;28;20277;-79
2022/06/04 10:10:34;;;;;;;4.72;3.80;;;;;;;24.10;100.00;99260.59;5031823;28;20198;-79
2022/06/04 10:15:59;;;;;;;4.75;3.78;;;;;;;24.18;100.00;99262.41;5031961;28;20201;-79
2022/06/04 10:18:32;;;;;;;4.25;3.85;;;;;;;24.43;100.00;99268.47;5029483;28;20272;-77
2022/06/04 10:21:06;;;;;;;4.35;3.95;;;;;;;24.22;100.00;99267.28;5028016;28;20221;-80
2022/06/04 10:23:43;;;;;;;4.97;4.00;;;;;;;24.07;100.00;99268.25;5028990;28;20201;-80
2022/06/04 10:26:47;;;;;;;5.03;4.13;;;;;;;24.06;100.00;99261.19;5031772;28;20201;-79
2022/06/04 10:29:43;;;;;;;7.40;4.63;;;;;;;24.12;100.00;99260.44;5009792;28;20197;-80
2022/06/04 10:32:24;;;;;;;4.53;4.00;;;;;;;24.47;100.00;99251.66;5025544;28;20202;-80
2022/06/04 10:35:22;;;;;;;4.00;3.70;;;;;;;24.56;100.00;99260.56;5031742;28;20198;-79
2022/06/04 10:38:11;;;;;;;7.13;3.85;;;;;;;24.28;100.00;99273.81;5031341;28;20273;-79
2022/06/04 10:40:47;;;;;;;3.88;3.55;;;;;;;24.43;100.00;99269.31;5031112;28;20218;-79
2022/06/04 10:43:54;;;;;;;4.85;4.10;;;;;;;24.44;100.00;99264.75;5030451;28;20660;-80
2022/06/04 10:46:30;;;;;;;4.47;4.00;;;;;;;23.97;100.00;99273.94;5031242;28;20648;-80
2022/06/04 10:49:14;;;;;;;4.38;3.97;;;;;;;24.07;100.00;99279.94;5031428;28;20653;-79
2022/06/04 10:51:52;;;;;;;4.40;4.00;;;;;;;24.05;100.00;99275.72;5031411;28;20190;-79
2022/06/04 10:54:28;;;;;;;4.40;4.05;;;;;;;24.08;100.00;99278.91;5031219;28;20560;-79
2022/06/04 10:57:01;;;;;;;8.05;4.07;;;;;;;24.09;100.00;99277.88;5026513;28;20214;-79
2022/06/04 10:59:35;;;;;;;7.00;3.72;;;;;;;24.25;100.00;99276.91;5029464;28;20198;-79
2022/06/04 11:02:14;;;;;;;5.57;3.92;;;;;;;24.51;100.00;99277.38;5031370;28;20194;-80
2022/06/04 11:04:48;;;;;;;5.35;4.00;;;;;;;24.67;100.00;99281.75;5032041;28;20190;-80
2022/06/04 11:07:38;;;;;;;5.53;4.10;;;;;;;24.53;100.00;99272.59;5024936;28;20193;-79
2022/06/04 11:10:16;;;;;;;7.00;4.10;;;;;;;24.62;100.00;99269.81;5034292;28;20203;-80
2022/06/04 11:12:49;;;;;;;6.50;4.07;;;;;;;24.52;100.00;99276.34;5031767;28;20197;-79
2022/06/04 11:15:23;;;;;;;5.70;3.97;;;;;;;24.59;100.00;99268.28;5033058;28;20198;-80
2022/06/04 11:17:59;;;;;;;4.07;3.55;;;;;;;25.18;100.00;99273.72;5030772;28;20232;-78
2022/06/04 11:20:30;;;;;;;5.57;3.80;;;;;;;25.56;100.00;99271.69;5032584;28;20232;-78
2022/06/04 11:23:16;;;;;;;5.00;3.72;;;;;;;25.55;100.00;99277.31;5031198;28;20197;-79
2022/06/04 11:25:51;;;;;;;4.00;3.70;;;;;;;26.24;100.00;99275.72;5030620;28;20204;-79
2022/06/04 11:28:23;;;;;;;5.88;3.70;;;;;;;26.88;100.00;99277.47;5030299;28;20280;-80
2022/06/04 11:31:00;;;;;;;5.85;3.70;;;;;;;26.78;100.00;99268.84;5031341;28;20225;-79
2022/06/04 11:33:44;;;;;;;4.60;3.75;;;;;;;26.52;100.00;99264.06;5032022;28;20635;-79
2022/06/04 11:36:24;;;;;;;4.20;3.80;;;;;;;26.68;100.00;99258.31;5032351;28;20732;-79
2022/06/04 11:39:10;;;;;;;3.63;3.33;;;;;;;26.99;100.00;99268.75;5032655;28;20198;-79
2022/06/04 11:41:49;;;;;;;4.18;3.78;;;;;;;27.55;100.00;99273.19;5029729;28;20221;-79
2022/06/04 11:44:42;;;;;;;4.20;3.80;;;;;;;27.33;100.00;99275.22;5025034;28;20205;-79
2022/06/04 11:47:26;;;;;;;4.32;4.03;;;;;;;27.35;100.00;99273.13;5029371;28;20194;-79
2022/06/04 11:50:03;;;;;;;3.92;3.63;;;;;;;27.90;97.93;99272.06;5029983;28;20204;-79
2022/06/04 11:52:33;;;;;;;4.95;3.92;;;;;;;27.84;99.88;99272.88;5011104;28;20225;-79
2022/06/04 11:55:26;;;;;;;5.07;4.68;;;;;;;28.02;97.96;99258.66;5029463;28;20205;-79
2022/06/04 11:58:09;;;;;;;4.07;3.72;;;;;;;27.79;99.03;99261.75;5022398;28;20209;-79
2022/06/04 12:00:40;;;;;;;5.45;4.05;;;;;;;28.13;99.29;99273.56;5028778;28;20232;-79
2022/06/04 12:03:17;;;;;;;4.90;4.18;;;;;;;28.58;95.92;99263.72;5030013;28;20193;-79
2022/06/04 12:05:54;;;;;;;4.43;4.00;;;;;;;28.34;91.66;99267.91;5029283;28;20205;-79